Time;durP1;ratioP1;P1;durP2;ratioP2;P2;SDS_P1;SDS_P2;PMS_P1;PMS_P2;Temp;Humidity;BMP_temperature;BMP_pressure;BME280_temperature;BME280_humidity;BME280_pressure;Samples;Min_cycle;Max_cycle;Signal;HPM_P1;HPM_P2
2023/06/12 00:02:13;;;;;;;8.82;5.07;;;17.80;99.90;;;;;;5037248;28;20116;-56
2023/06/12 00:04:39;;;;;;;5.32;4.35;;;17.80;99.90;;;;;;5032591;28;20021;-56
2023/06/12 00:07:05;;;;;;;8.68;5.18;;;17.70;99.90;;;;;;5031234;28;20028;-57
2023/06/12 00:09:33;;;;;;;9.15;5.22;;;17.60;99.90;;;;;;5037626;28;20031;-54
2023/06/12 00:11:58;;;;;;;7.18;5.28;;;17.50;99.90;;;;;;5035170;28;20028;-52
2023/06/12 00:14:24;;;;;;;11.60;4.93;;;17.50;99.90;;;;;;5034217;28;20033;-52
2023/06/12 00:16:49;;;;;;;9.05;6.28;;;17.40;99.90;;;;;;5036741;28;20040;-55
2023/06/12 00:19:15;;;;;;;8.35;5.55;;;17.40;99.90;;;;;;5036995;28;20033;-57
2023/06/12 00:21:41;;;;;;;6.88;4.78;;;17.40;99.90;;;;;;5032064;28;20576;-57
2023/06/12 00:24:08;;;;;;;7.32;4.75;;;17.40;99.90;;;;;;5036874;28;20511;-55
2023/06/12 00:26:35;;;;;;;9.35;5.65;;;17.30;99.90;;;;;;5042925;28;20025;-58
2023/06/12 00:29:01;;;;;;;10.95;5.40;;;17.30;99.90;;;;;;5041486;28;20107;-55
2023/06/12 00:31:26;;;;;;;12.38;5.97;;;17.30;99.90;;;;;;5043331;28;20075;-54
2023/06/12 00:33:52;;;;;;;8.07;5.13;;;17.30;99.90;;;;;;5039940;28;20037;-57
2023/06/12 00:36:18;;;;;;;11.48;5.47;;;17.30;99.90;;;;;;5040812;28;20036;-55
2023/06/12 00:38:43;;;;;;;11.85;5.03;;;17.20;99.90;;;;;;5040717;28;20041;-54
2023/06/12 00:41:09;;;;;;;12.77;6.07;;;17.10;99.90;;;;;;5036321;28;20116;-53
2023/06/12 00:43:34;;;;;;;9.27;5.63;;;17.00;99.90;;;;;;5038038;28;22335;-57
2023/06/12 00:46:00;;;;;;;9.85;5.18;;;17.00;99.90;;;;;;5034276;28;20026;-55
2023/06/12 00:48:26;;;;;;;10.38;5.78;;;17.00;99.90;;;;;;5042303;28;20398;-56
2023/06/12 00:50:52;;;;;;;8.30;5.22;;;16.90;99.90;;;;;;5038511;28;20849;-53
2023/06/12 00:53:18;;;;;;;7.25;4.88;;;16.90;99.90;;;;;;5043059;28;20041;-57
2023/06/12 00:55:44;;;;;;;9.68;5.53;;;16.80;99.90;;;;;;5038011;28;20036;-54
2023/06/12 00:58:11;;;;;;;12.95;6.05;;;16.80;99.90;;;;;;5039199;28;20025;-54
2023/06/12 01:00:40;;;;;;;8.90;4.68;;;16.70;99.90;;;;;;5038368;28;20089;-57
2023/06/12 01:03:12;;;;;;;8.88;5.15;;;16.70;99.90;;;;;;5041779;28;20025;-55
2023/06/12 01:05:42;;;;;;;9.48;5.63;;;16.60;99.90;;;;;;5037658;28;20411;-56
2023/06/12 01:08:37;;;;;;;7.43;5.10;;;16.60;99.90;;;;;;5037157;28;20510;-55
2023/06/12 01:11:09;;;;;;;9.85;5.30;;;16.60;99.90;;;;;;5035378;28;20025;-58
2023/06/12 01:13:35;;;;;;;8.13;5.35;;;16.60;99.90;;;;;;5036694;28;20039;-56
2023/06/12 01:16:01;;;;;;;8.90;5.78;;;16.50;99.90;;;;;;5036342;28;20036;-55
2023/06/12 01:18:27;;;;;;;12.10;5.38;;;16.50;99.90;;;;;;5044025;28;20423;-56
2023/06/12 01:20:55;;;;;;;7.85;5.40;;;16.40;99.90;;;;;;5038220;28;20033;-59
2023/06/12 01:23:33;;;;;;;11.07;5.53;;;16.40;99.90;;;;;;5036712;28;20025;-56
2023/06/12 01:26:27;;;;;;;10.82;6.55;;;16.30;99.90;;;;;;5041458;28;20040;-56
2023/06/12 01:29:19;;;;;;;9.40;5.37;;;16.30;99.90;;;;;;5038997;28;20112;-53
2023/06/12 01:32:09;;;;;;;7.13;5.13;;;16.30;99.90;;;;;;5036556;28;20025;-54
2023/06/12 01:35:03;;;;;;;9.32;6.50;;;16.20;99.90;;;;;;5038226;28;20026;-56
2023/06/12 01:37:49;;;;;;;10.25;6.38;;;16.20;99.90;;;;;;5038070;28;20115;-56
2023/06/12 01:40:16;;;;;;;8.23;5.38;;;16.20;99.90;;;;;;5037378;28;20090;-57
2023/06/12 01:42:42;;;;;;;9.10;5.55;;;16.10;99.90;;;;;;5038748;28;20086;-57
2023/06/12 01:45:08;;;;;;;10.88;5.50;;;16.00;99.90;;;;;;5037120;28;20045;-57
2023/06/12 01:47:34;;;;;;;9.07;5.88;;;16.00;99.90;;;;;;5036460;28;20026;-57
2023/06/12 01:50:00;;;;;;;9.75;5.97;;;16.00;99.90;;;;;;5038719;28;20116;-57
2023/06/12 01:52:26;;;;;;;9.65;5.55;;;15.90;99.90;;;;;;5036463;28;20028;-54
2023/06/12 01:54:51;;;;;;;8.80;5.40;;;15.90;99.90;;;;;;5037797;28;20030;-53
2023/06/12 01:57:21;;;;;;;9.50;5.57;;;15.90;99.90;;;;;;5040427;28;20107;-55
2023/06/12 01:59:48;;;;;;;10.45;5.80;;;15.80;99.90;;;;;;5038750;28;20021;-57
2023/06/12 02:02:14;;;;;;;11.00;6.55;;;15.80;99.90;;;;;;5033536;28;20100;-56
2023/06/12 02:04:41;;;;;;;13.65;6.07;;;15.80;99.90;;;;;;5039143;28;20040;-57
2023/06/12 02:07:06;;;;;;;15.00;5.50;;;15.80;99.90;;;;;;5035331;28;20040;-53
2023/06/12 02:09:32;;;;;;;9.82;5.50;;;15.80;99.90;;;;;;5038190;28;20384;-57
2023/06/12 02:11:58;;;;;;;11.10;6.00;;;15.80;99.90;;;;;;5040578;28;20097;-57
2023/06/12 02:14:24;;;;;;;8.48;5.82;;;15.80;99.90;;;;;;5035139;28;20079;-55
2023/06/12 02:16:53;;;;;;;9.77;6.40;;;15.80;99.90;;;;;;5039054;28;20024;-55
2023/06/12 02:19:25;;;;;;;12.80;6.65;;;15.80;99.90;;;;;;5032930;28;20029;-57
2023/06/12 02:21:52;;;;;;;14.05;7.05;;;15.70;99.90;;;;;;5036976;28;20043;-58
2023/06/12 02:24:18;;;;;;;11.55;6.05;;;15.70;99.90;;;;;;5039113;28;20025;-57
2023/06/12 02:26:43;;;;;;;8.02;6.05;;;15.70;99.90;;;;;;5035987;28;20510;-59
2023/06/12 02:29:11;;;;;;;9.63;5.82;;;15.70;99.90;;;;;;5037318;28;20037;-56
2023/06/12 02:31:37;;;;;;;10.60;6.72;;;15.60;99.90;;;;;;5037276;28;20063;-57
2023/06/12 02:34:03;;;;;;;7.72;5.68;;;15.60;99.90;;;;;;5037424;28;20112;-59
2023/06/12 02:36:29;;;;;;;15.88;5.88;;;15.60;99.90;;;;;;5037945;28;20055;-57
2023/06/12 02:38:55;;;;;;;8.98;6.10;;;15.50;99.90;;;;;;5037412;28;20520;-57
2023/06/12 02:41:21;;;;;;;8.65;5.78;;;15.50;99.90;;;;;;5030950;28;20467;-56
2023/06/12 02:43:47;;;;;;;7.90;5.93;;;15.40;99.90;;;;;;5035224;28;20022;-59
2023/06/12 02:46:12;;;;;;;9.02;5.35;;;15.40;99.90;;;;;;5036372;28;20045;-58
2023/06/12 02:48:38;;;;;;;14.98;6.95;;;15.30;99.90;;;;;;5038237;28;20051;-59
2023/06/12 02:51:03;;;;;;;10.45;6.32;;;15.20;99.90;;;;;;5032789;28;20118;-59
2023/06/12 02:53:29;;;;;;;11.18;5.90;;;15.20;99.90;;;;;;5032964;28;20033;-58
2023/06/12 02:55:54;;;;;;;10.60;5.95;;;15.10;99.90;;;;;;5036802;28;20028;-59
2023/06/12 02:58:20;;;;;;;12.10;6.35;;;15.10;99.90;;;;;;5032902;28;20495;-59
2023/06/12 03:00:46;;;;;;;10.15;5.78;;;15.10;99.90;;;;;;5034140;28;20649;-56
2023/06/12 03:03:12;;;;;;;13.73;6.30;;;15.10;99.90;;;;;;5033789;28;20107;-57
2023/06/12 03:05:38;;;;;;;12.57;6.97;;;15.00;99.90;;;;;;5039763;28;20617;-59
2023/06/12 03:08:04;;;;;;;8.57;5.88;;;15.00;99.90;;;;;;5040873;28;20037;-59
2023/06/12 03:10:30;;;;;;;10.95;6.18;;;15.00;99.90;;;;;;5040417;28;20400;-59
2023/06/12 03:12:56;;;;;;;11.85;6.07;;;15.00;99.90;;;;;;5041772;28;20096;-55
2023/06/12 03:15:21;;;;;;;10.18;6.03;;;15.00;99.90;;;;;;5034557;28;20017;-58
2023/06/12 03:17:47;;;;;;;9.88;5.75;;;15.00;99.90;;;;;;5044435;28;20472;-59
2023/06/12 03:20:14;;;;;;;9.52;6.63;;;15.00;99.90;;;;;;5042722;28;20025;-59
2023/06/12 03:22:41;;;;;;;10.77;6.57;;;14.90;99.90;;;;;;5033350;28;20028;-59
2023/06/12 03:25:08;;;;;;;14.48;6.18;;;14.90;99.90;;;;;;5035869;28;20036;-58
2023/06/12 03:27:33;;;;;;;13.93;7.00;;;14.90;99.90;;;;;;5037537;28;20029;-57
2023/06/12 03:29:59;;;;;;;12.85;6.50;;;14.90;99.90;;;;;;5037618;28;20068;-59
2023/06/12 03:32:26;;;;;;;10.70;6.18;;;14.90;99.90;;;;;;5032322;28;20036;-57
2023/06/12 03:34:52;;;;;;;13.38;7.00;;;14.90;99.90;;;;;;5037910;28;20029;-58
2023/06/12 03:37:18;;;;;;;11.82;7.00;;;14.80;99.90;;;;;;5037521;28;20025;-58
2023/06/12 03:39:44;;;;;;;11.25;6.15;;;14.80;99.90;;;;;;5035018;28;20449;-57
2023/06/12 03:42:10;;;;;;;12.63;6.15;;;14.80;99.90;;;;;;5032035;28;20025;-58
2023/06/12 03:44:36;;;;;;;14.43;6.57;;;14.80;99.90;;;;;;5036624;28;20017;-59
2023/06/12 03:47:02;;;;;;;11.05;5.65;;;14.80;99.90;;;;;;5036754;28;20398;-58
2023/06/12 03:49:28;;;;;;;9.13;6.10;;;14.70;99.90;;;;;;5040037;28;20376;-58
2023/06/12 03:51:53;;;;;;;10.10;6.55;;;14.80;99.90;;;;;;5036810;28;20036;-57
2023/06/12 03:54:19;;;;;;;8.80;5.97;;;14.80;99.90;;;;;;5037278;28;20038;-57
2023/06/12 03:56:45;;;;;;;9.63;6.20;;;14.80;99.90;;;;;;5037376;28;20021;-56
2023/06/12 03:59:11;;;;;;;13.65;7.43;;;14.80;99.90;;;;;;5035908;28;20104;-58
2023/06/12 04:01:38;;;;;;;10.00;6.50;;;14.80;99.90;;;;;;5033458;28;20407;-56
2023/06/12 04:04:04;;;;;;;9.48;6.32;;;14.80;99.90;;;;;;5036844;28;20396;-58
2023/06/12 04:06:30;;;;;;;9.48;5.97;;;14.80;99.90;;;;;;5040512;28;20078;-55
2023/06/12 04:08:56;;;;;;;11.38;6.20;;;14.90;99.90;;;;;;5028754;28;20328;-56
2023/06/12 04:11:22;;;;;;;10.63;6.82;;;14.90;99.90;;;;;;5029584;28;20029;-57
2023/06/12 04:13:47;;;;;;;10.40;5.93;;;14.90;99.90;;;;;;5029758;28;20051;-56
2023/06/12 04:16:13;;;;;;;9.13;6.28;;;15.00;99.90;;;;;;5028985;28;20026;-57
2023/06/12 04:18:39;;;;;;;11.70;7.25;;;15.00;99.90;;;;;;5030476;28;20577;-58
2023/06/12 04:21:05;;;;;;;9.75;6.40;;;15.00;99.90;;;;;;5028598;28;20565;-55
2023/06/12 04:23:31;;;;;;;11.05;6.18;;;15.00;99.90;;;;;;5028320;28;20037;-55
2023/06/12 04:26:04;;;;;;;10.77;6.70;;;15.00;99.90;;;;;;5029605;28;20029;-58
2023/06/12 04:28:35;;;;;;;8.77;5.93;;;15.10;99.90;;;;;;5026388;28;20037;-56
2023/06/12 04:31:02;;;;;;;11.45;6.50;;;15.20;99.90;;;;;;5026878;28;20275;-59
2023/06/12 04:33:32;;;;;;;15.85;6.78;;;15.20;99.90;;;;;;5029315;28;20024;-54
2023/06/12 04:35:58;;;;;;;16.85;7.05;;;15.20;99.90;;;;;;5033347;28;20048;-54
2023/06/12 04:38:25;;;;;;;11.80;6.70;;;15.30;99.90;;;;;;5033866;28;20021;-55
2023/06/12 04:40:52;;;;;;;13.88;6.63;;;15.40;99.90;;;;;;5033647;28;20039;-57
2023/06/12 04:43:21;;;;;;;9.98;7.07;;;15.40;99.90;;;;;;5031688;28;20032;-59
2023/06/12 04:45:47;;;;;;;11.05;6.88;;;15.50;99.90;;;;;;5032125;28;20021;-58
2023/06/12 04:48:13;;;;;;;10.43;6.57;;;15.50;99.90;;;;;;5035671;28;20028;-59
2023/06/12 04:50:39;;;;;;;10.90;6.32;;;15.50;99.90;;;;;;5038258;28;20033;-60
2023/06/12 04:53:06;;;;;;;11.43;7.07;;;15.60;99.90;;;;;;5034139;28;20522;-58
2023/06/12 04:55:32;;;;;;;12.10;6.55;;;15.60;99.90;;;;;;5037421;28;20024;-58
2023/06/12 04:57:58;;;;;;;8.88;6.50;;;15.70;99.90;;;;;;5028917;28;20033;-58
2023/06/12 05:00:25;;;;;;;13.15;6.53;;;15.80;99.90;;;;;;5037995;28;20033;-59
2023/06/12 05:02:55;;;;;;;12.10;5.95;;;15.80;99.90;;;;;;5036986;28;20021;-59
2023/06/12 05:05:21;;;;;;;11.75;7.20;;;15.90;99.90;;;;;;5037156;28;20571;-58
2023/06/12 05:07:48;;;;;;;14.90;6.03;;;16.00;99.90;;;;;;5038611;28;20123;-59
2023/06/12 05:10:16;;;;;;;15.48;6.68;;;16.10;99.90;;;;;;5038544;28;20078;-59
2023/06/12 05:12:42;;;;;;;13.05;6.88;;;16.10;99.90;;;;;;5041854;28;20159;-58
2023/06/12 05:15:09;;;;;;;15.85;7.43;;;16.10;99.90;;;;;;5039257;28;20144;-59
2023/06/12 05:17:34;;;;;;;10.98;6.55;;;16.20;99.90;;;;;;5044899;28;20032;-56
2023/06/12 05:20:00;;;;;;;12.45;7.13;;;16.20;99.90;;;;;;5038638;28;20033;-58
2023/06/12 05:22:25;;;;;;;10.55;6.40;;;16.30;99.90;;;;;;5040016;28;20426;-57
2023/06/12 05:24:51;;;;;;;13.27;7.05;;;16.40;99.90;;;;;;5039072;28;20086;-58
2023/06/12 05:27:16;;;;;;;11.80;6.40;;;16.50;99.90;;;;;;5046947;28;20032;-58
2023/06/12 05:29:42;;;;;;;14.30;6.75;;;16.50;99.90;;;;;;5040177;28;20092;-56
2023/06/12 05:32:08;;;;;;;9.98;6.40;;;16.60;99.90;;;;;;5046485;28;20040;-58
2023/06/12 05:34:34;;;;;;;11.10;6.95;;;16.70;99.90;;;;;;5040561;28;20221;-55
2023/06/12 05:37:00;;;;;;;11.45;7.00;;;16.80;99.90;;;;;;5038002;28;20112;-54
2023/06/12 05:39:25;;;;;;;12.02;7.32;;;16.80;99.90;;;;;;5036497;28;20167;-59
2023/06/12 05:41:51;;;;;;;15.90;6.80;;;16.90;99.90;;;;;;5038651;28;20040;-60
2023/06/12 05:44:16;;;;;;;11.63;6.15;;;17.00;99.90;;;;;;5042347;28;20029;-58
2023/06/12 05:46:43;;;;;;;11.77;6.60;;;17.10;99.90;;;;;;5044508;28;20391;-60
2023/06/12 05:49:08;;;;;;;10.35;6.40;;;17.10;99.90;;;;;;5038446;28;20024;-56
2023/06/12 05:51:35;;;;;;;10.82;6.22;;;17.20;99.90;;;;;;5038505;28;20021;-60
2023/06/12 05:54:01;;;;;;;10.70;6.43;;;17.30;99.90;;;;;;5037494;28;20018;-58
2023/06/12 05:56:27;;;;;;;10.73;5.90;;;17.40;99.90;;;;;;5037719;28;20116;-59
2023/06/12 05:58:52;;;;;;;8.95;5.78;;;17.50;99.90;;;;;;5037226;28;20033;-57
2023/06/12 06:01:21;;;;;;;15.55;6.15;;;17.60;99.90;;;;;;5042014;28;20020;-60
2023/06/12 06:03:48;;;;;;;8.15;6.03;;;17.70;99.90;;;;;;5042098;28;20037;-55
2023/06/12 06:06:14;;;;;;;10.63;5.82;;;17.80;99.90;;;;;;5040417;28;20053;-60
2023/06/12 06:08:40;;;;;;;10.10;5.25;;;18.00;99.90;;;;;;5039738;28;20068;-57
2023/06/12 06:11:05;;;;;;;7.75;5.07;;;18.00;99.90;;;;;;5042376;28;20029;-58
2023/06/12 06:13:31;;;;;;;9.95;6.25;;;18.10;99.90;;;;;;5039324;28;20091;-60
2023/06/12 06:15:57;;;;;;;11.13;6.07;;;18.20;99.90;;;;;;5042924;28;20061;-58
2023/06/12 06:18:22;;;;;;;12.90;6.00;;;18.30;99.90;;;;;;5035743;28;20037;-58
2023/06/12 06:20:48;;;;;;;8.48;5.35;;;18.40;99.90;;;;;;5040708;28;20090;-57
2023/06/12 06:23:14;;;;;;;9.13;5.97;;;18.50;99.90;;;;;;5042867;28;20032;-59
2023/06/12 06:25:40;;;;;;;11.73;6.53;;;18.50;99.90;;;;;;5040098;28;20586;-59
2023/06/12 06:28:06;;;;;;;12.07;6.65;;;18.70;99.90;;;;;;5041713;28;20025;-57
2023/06/12 06:30:31;;;;;;;11.20;6.82;;;18.80;99.90;;;;;;5041452;28;20108;-56
2023/06/12 06:32:57;;;;;;;12.07;5.70;;;18.90;99.90;;;;;;5039884;28;20506;-59
2023/06/12 06:35:24;;;;;;;12.85;6.13;;;19.00;99.90;;;;;;5038142;28;20029;-58
2023/06/12 06:37:50;;;;;;;11.95;6.18;;;19.20;99.90;;;;;;5035243;28;20033;-59
2023/06/12 06:40:16;;;;;;;10.00;6.25;;;19.30;99.90;;;;;;5039880;28;20566;-58
2023/06/12 06:42:41;;;;;;;8.98;6.20;;;19.40;99.90;;;;;;5042206;28;20026;-54
2023/06/12 06:45:08;;;;;;;8.70;5.93;;;19.50;99.90;;;;;;5038269;28;20373;-58
2023/06/12 06:47:34;;;;;;;11.25;6.50;;;19.60;99.90;;;;;;5040603;28;20487;-58
2023/06/12 06:50:00;;;;;;;9.85;5.32;;;19.70;99.90;;;;;;5038921;28;20450;-55
2023/06/12 06:52:25;;;;;;;11.23;6.20;;;19.70;99.90;;;;;;5040202;28;20211;-58
2023/06/12 06:54:51;;;;;;;11.98;6.32;;;19.80;99.90;;;;;;5036483;28;20033;-54
2023/06/12 06:57:18;;;;;;;10.85;6.03;;;20.00;99.90;;;;;;5039863;28;20051;-58
2023/06/12 06:59:43;;;;;;;7.45;5.72;;;20.10;99.90;;;;;;5035963;28;20040;-54
2023/06/12 07:02:09;;;;;;;7.93;5.70;;;20.20;99.90;;;;;;5044417;28;20029;-58
2023/06/12 07:04:35;;;;;;;8.90;5.90;;;20.30;99.90;;;;;;5056968;28;20029;-59
2023/06/12 07:07:00;;;;;;;10.18;6.05;;;20.30;99.90;;;;;;5041387;28;20375;-60
2023/06/12 07:09:26;;;;;;;10.35;6.82;;;20.40;99.90;;;;;;5036782;28;20108;-60
2023/06/12 07:11:51;;;;;;;18.48;6.07;;;20.50;99.90;;;;;;5036965;28;20033;-57
2023/06/12 07:14:17;;;;;;;12.98;6.15;;;20.50;99.90;;;;;;5039827;28;20124;-58
2023/06/12 07:16:44;;;;;;;7.82;5.80;;;20.60;99.90;;;;;;5043154;28;20027;-59
2023/06/12 07:19:10;;;;;;;9.77;5.78;;;20.70;99.90;;;;;;5044616;28;20021;-60
2023/06/12 07:21:36;;;;;;;9.23;5.68;;;20.80;99.90;;;;;;5047151;28;20087;-58
2023/06/12 07:24:03;;;;;;;7.97;5.78;;;20.80;99.90;;;;;;5038109;28;20029;-57
2023/06/12 07:26:28;;;;;;;7.45;5.28;;;20.90;99.90;;;;;;5043835;28;20021;-55
2023/06/12 07:28:54;;;;;;;8.35;6.40;;;21.00;99.90;;;;;;5040492;28;20052;-53
2023/06/12 07:31:20;;;;;;;10.02;6.18;;;21.00;99.90;;;;;;5039147;28;20017;-58
2023/06/12 07:33:46;;;;;;;9.95;5.80;;;21.00;99.90;;;;;;5035478;28;20033;-58
2023/06/12 07:36:12;;;;;;;13.77;6.40;;;21.10;99.90;;;;;;5036463;28;20033;-56
2023/06/12 07:38:38;;;;;;;9.75;5.63;;;21.10;99.90;;;;;;5038609;28;20035;-57
2023/06/12 07:41:04;;;;;;;14.93;5.93;;;21.20;99.90;;;;;;5040125;28;20087;-57
2023/06/12 07:43:34;;;;;;;7.75;6.18;;;21.30;99.90;;;;;;5036497;28;20037;-57
2023/06/12 07:46:02;;;;;;;10.70;6.07;;;21.40;99.90;;;;;;5038880;28;20013;-56
2023/06/12 07:48:28;;;;;;;10.70;5.80;;;21.40;99.90;;;;;;5033725;28;20030;-59
2023/06/12 07:50:54;;;;;;;7.38;5.20;;;21.50;99.90;;;;;;5033816;28;20029;-60
2023/06/12 07:53:19;;;;;;;10.82;6.57;;;21.60;99.90;;;;;;5036894;28;20025;-57
2023/06/12 07:55:45;;;;;;;8.98;5.47;;;21.80;99.90;;;;;;5037237;28;20451;-57
2023/06/12 07:58:12;;;;;;;16.88;6.53;;;21.90;99.90;;;;;;5038244;28;20033;-57
2023/06/12 08:00:37;;;;;;;10.32;6.50;;;21.90;99.90;;;;;;5040804;28;20085;-55
2023/06/12 08:03:03;;;;;;;9.05;6.47;;;22.00;99.90;;;;;;5037011;28;20025;-59
2023/06/12 08:05:29;;;;;;;7.78;6.25;;;22.00;99.90;;;;;;5036874;28;20029;-56
2023/06/12 08:07:55;;;;;;;10.00;5.72;;;22.10;99.90;;;;;;5039594;28;20025;-57
2023/06/12 08:10:21;;;;;;;14.13;5.95;;;22.20;99.90;;;;;;5036732;28;20517;-58
2023/06/12 08:12:47;;;;;;;7.22;5.95;;;22.30;99.90;;;;;;5038594;28;20164;-58
2023/06/12 08:15:13;;;;;;;7.85;5.95;;;22.40;99.90;;;;;;5035281;28;20120;-57
2023/06/12 08:17:41;;;;;;;12.07;5.75;;;22.60;99.90;;;;;;5038409;28;20507;-58
2023/06/12 08:20:09;;;;;;;7.75;5.78;;;22.70;99.90;;;;;;5039774;28;20028;-56
2023/06/12 08:22:38;;;;;;;8.20;5.78;;;22.80;99.90;;;;;;5038791;28;20033;-54
2023/06/12 08:25:04;;;;;;;6.90;5.40;;;22.90;99.90;;;;;;5035960;28;20104;-59
2023/06/12 08:27:30;;;;;;;9.98;6.28;;;23.00;99.90;;;;;;5037514;28;20954;-53
2023/06/12 08:29:55;;;;;;;8.43;5.93;;;23.10;99.90;;;;;;5038407;28;20072;-53
2023/06/12 08:32:22;;;;;;;13.48;6.35;;;23.20;99.90;;;;;;5039999;28;20018;-59
2023/06/12 08:34:48;;;;;;;11.20;6.03;;;23.40;99.90;;;;;;5040174;28;20403;-59
2023/06/12 08:37:13;;;;;;;7.05;5.43;;;23.40;99.90;;;;;;5043829;28;20427;-56
2023/06/12 08:39:39;;;;;;;12.48;5.93;;;23.50;99.90;;;;;;5040334;28;20159;-57
2023/06/12 08:42:07;;;;;;;7.43;5.68;;;23.60;99.90;;;;;;5043400;28;20170;-59
2023/06/12 08:44:33;;;;;;;8.60;5.63;;;23.70;99.90;;;;;;5051706;28;20445;-59
2023/06/12 08:47:01;;;;;;;15.38;5.65;;;23.90;99.90;;;;;;5047280;28;20152;-59
2023/06/12 08:49:27;;;;;;;9.73;6.10;;;23.90;99.90;;;;;;5040795;28;20033;-59
2023/06/12 08:51:53;;;;;;;8.00;5.40;;;24.10;99.90;;;;;;5043729;28;20104;-59
2023/06/12 08:54:18;;;;;;;10.05;6.22;;;24.20;99.90;;;;;;5040994;28;20128;-58
2023/06/12 08:56:45;;;;;;;8.95;5.18;;;24.20;99.90;;;;;;5045123;28;20041;-57
2023/06/12 08:59:12;;;;;;;12.68;6.05;;;24.40;99.90;;;;;;5050438;28;20031;-56
2023/06/12 09:01:39;;;;;;;11.07;6.25;;;24.50;99.90;;;;;;5051203;28;20029;-59
2023/06/12 09:04:13;;;;;;;11.25;6.20;;;24.60;99.90;;;;;;5047998;28;20473;-59
2023/06/12 09:06:40;;;;;;;12.40;5.80;;;24.70;99.90;;;;;;5045293;28;20029;-58
2023/06/12 09:09:05;;;;;;;9.98;6.15;;;24.80;99.90;;;;;;5042563;28;20025;-58
2023/06/12 09:11:35;;;;;;;8.10;6.18;;;24.90;99.90;;;;;;5046954;28;20140;-54
2023/06/12 09:14:01;;;;;;;7.30;5.70;;;25.00;99.90;;;;;;5045528;28;20075;-57
2023/06/12 09:16:27;;;;;;;11.18;6.22;;;25.00;99.90;;;;;;5044880;28;20624;-54
2023/06/12 09:18:54;;;;;;;7.38;5.35;;;25.20;99.90;;;;;;5049328;28;20113;-59
2023/06/12 09:21:23;;;;;;;8.23;5.85;;;25.30;99.90;;;;;;5043432;28;20094;-59
2023/06/12 09:23:54;;;;;;;12.48;5.88;;;25.50;99.90;;;;;;5042290;28;20384;-59
2023/06/12 09:26:21;;;;;;;7.50;6.18;;;25.60;99.90;;;;;;5043512;28;20471;-58
2023/06/12 09:28:54;;;;;;;7.85;5.18;;;25.80;99.90;;;;;;5051739;28;20486;-58
2023/06/12 09:31:20;;;;;;;7.07;5.20;;;25.90;99.90;;;;;;5039513;28;20564;-57
2023/06/12 09:33:49;;;;;;;9.48;5.35;;;26.10;99.90;;;;;;5039480;28;20399;-59
2023/06/12 09:36:16;;;;;;;10.43;6.65;;;26.20;99.90;;;;;;5043274;28;20021;-57
2023/06/12 09:38:41;;;;;;;11.15;6.55;;;26.30;98.00;;;;;;5045344;28;20074;-59
2023/06/12 09:41:08;;;;;;;13.65;5.90;;;26.50;97.20;;;;;;5052254;28;20044;-58
2023/06/12 09:43:35;;;;;;;6.53;5.50;;;26.60;99.90;;;;;;5049304;28;20021;-57
2023/06/12 09:46:08;;;;;;;8.35;6.10;;;26.70;97.90;;;;;;5050164;28;20570;-57
2023/06/12 09:48:35;;;;;;;7.72;6.15;;;26.90;97.00;;;;;;5037020;28;20040;-57
2023/06/12 09:51:07;;;;;;;9.65;5.43;;;27.10;97.20;;;;;;5042256;28;20100;-59
2023/06/12 09:53:39;;;;;;;7.22;5.20;;;27.10;93.30;;;;;;5044843;28;20040;-59
2023/06/12 09:56:07;;;;;;;6.40;4.90;;;27.10;96.30;;;;;;5044412;28;20499;-59
2023/06/12 09:58:36;;;;;;;9.27;5.20;;;27.10;93.70;;;;;;5042204;28;20491;-54
2023/06/12 10:01:05;;;;;;;8.25;5.63;;;27.10;94.70;;;;;;5043257;28;20029;-59
2023/06/12 10:03:34;;;;;;;14.77;5.40;;;27.10;93.70;;;;;;5051671;28;20124;-59
2023/06/12 10:06:02;;;;;;;10.30;5.35;;;27.30;93.80;;;;;;5043116;28;20017;-59
2023/06/12 10:08:30;;;;;;;6.80;5.68;;;27.40;93.70;;;;;;5042010;28;20079;-59
2023/06/12 10:10:55;;;;;;;8.52;6.03;;;27.70;94.30;;;;;;5039781;28;20032;-58
2023/06/12 10:13:22;;;;;;;7.93;5.80;;;27.90;94.40;;;;;;5043955;28;20017;-58
2023/06/12 10:15:49;;;;;;;7.60;5.53;;;28.10;93.60;;;;;;5039551;28;20025;-59
2023/06/12 10:18:16;;;;;;;7.00;5.70;;;28.10;92.10;;;;;;5048262;28;20028;-58
2023/06/12 10:20:42;;;;;;;8.13;5.60;;;28.10;92.10;;;;;;5049326;28;20112;-59
2023/06/12 10:23:09;;;;;;;6.88;5.30;;;28.30;91.30;;;;;;5042283;28;20025;-59
2023/06/12 10:25:35;;;;;;;5.95;4.70;;;28.40;91.10;;;;;;5038489;28;20169;-58
2023/06/12 10:28:01;;;;;;;6.03;4.68;;;28.50;88.90;;;;;;5045413;28;20542;-59
2023/06/12 10:30:27;;;;;;;8.73;5.75;;;28.80;91.30;;;;;;5038992;28;20033;-58
2023/06/12 10:32:52;;;;;;;9.43;4.85;;;29.00;87.30;;;;;;5040319;28;20041;-59
2023/06/12 10:35:31;;;;;;;6.65;4.90;;;29.30;82.80;;;;;;5040261;28;20049;-59
2023/06/12 10:37:56;;;;;;;11.52;5.20;;;29.60;84.30;;;;;;5046906;28;20115;-59
2023/06/12 10:40:23;;;;;;;5.20;4.70;;;29.60;80.50;;;;;;5046369;28;20112;-60
2023/06/12 10:42:51;;;;;;;8.85;5.53;;;29.70;78.70;;;;;;5041058;28;20365;-59
2023/06/12 10:45:22;;;;;;;7.95;5.22;;;29.80;78.10;;;;;;5043770;28;20583;-58
2023/06/12 10:48:03;;;;;;;7.22;5.22;;;30.00;77.00;;;;;;5046168;28;20379;-59
2023/06/12 10:50:33;;;;;;;9.85;5.30;;;30.00;78.70;;;;;;5046172;28;20021;-59
2023/06/12 10:53:13;;;;;;;6.45;5.25;;;30.10;76.50;;;;;;5041291;28;20021;-59
2023/06/12 10:55:40;;;;;;;6.50;5.00;;;30.10;79.90;;;;;;5044561;28;20136;-60
2023/06/12 10:58:08;;;;;;;9.43;5.22;;;30.40;75.10;;;;;;5045680;28;20036;-59
2023/06/12 11:00:38;;;;;;;8.05;5.70;;;30.30;75.10;;;;;;5050776;28;20032;-60
2023/06/12 11:03:06;;;;;;;14.55;6.05;;;30.50;79.70;;;;;;5039079;28;20017;-59
2023/06/12 11:05:33;;;;;;;10.07;5.07;;;30.70;77.10;;;;;;5044911;28;20028;-59
2023/06/12 11:08:04;;;;;;;7.68;5.30;;;30.60;74.30;;;;;;5040739;28;20913;-59
2023/06/12 11:10:30;;;;;;;9.35;5.53;;;30.70;74.20;;;;;;5042304;28;20372;-57
2023/06/12 11:12:56;;;;;;;5.22;4.53;;;30.50;72.70;;;;;;5044051;28;20116;-58
2023/06/12 11:15:22;;;;;;;7.78;5.10;;;30.30;76.40;;;;;;5042359;28;20713;-59
2023/06/12 11:17:49;;;;;;;8.88;6.13;;;30.60;76.90;;;;;;5042927;28;20100;-59
2023/06/12 11:20:18;;;;;;;5.93;4.95;;;30.90;73.70;;;;;;5048261;28;20025;-59
2023/06/12 11:22:45;;;;;;;9.50;5.80;;;31.20;72.60;;;;;;5039677;28;21189;-60
2023/06/12 11:25:11;;;;;;;9.13;5.30;;;31.20;75.80;;;;;;5039678;28;20037;-60
2023/06/12 11:27:37;;;;;;;5.20;4.63;;;31.30;74.80;;;;;;5041762;28;20491;-60
2023/06/12 11:30:08;;;;;;;6.57;4.93;;;31.50;66.70;;;;;;5050952;28;20021;-58
2023/06/12 11:32:34;;;;;;;7.72;5.15;;;31.60;68.30;;;;;;5041566;28;20017;-58
2023/06/12 11:35:03;;;;;;;8.50;4.85;;;31.20;72.30;;;;;;5046973;28;20040;-58
2023/06/12 11:37:29;;;;;;;6.30;4.72;;;31.30;72.30;;;;;;5048199;28;20043;-58
2023/06/12 11:40:09;;;;;;;6.78;5.05;;;31.60;73.70;;;;;;5043870;28;20391;-60
2023/06/12 11:42:40;;;;;;;16.52;6.05;;;31.70;67.80;;;;;;5048164;28;20029;-58
2023/06/12 11:45:14;;;;;;;11.35;5.45;;;31.70;68.80;;;;;;5046266;28;20108;-60
2023/06/12 11:47:42;;;;;;;6.28;5.00;;;31.90;65.70;;;;;;5045743;28;20363;-58
2023/06/12 11:50:10;;;;;;;6.32;5.28;;;31.70;67.80;;;;;;5049745;28;20033;-59
2023/06/12 11:52:38;;;;;;;5.72;4.72;;;32.00;68.40;;;;;;5046711;28;20101;-60
2023/06/12 11:55:08;;;;;;;12.95;4.50;;;32.20;66.00;;;;;;5048904;28;20100;-59
2023/06/12 11:57:35;;;;;;;8.82;4.68;;;32.10;65.60;;;;;;5037997;28;20515;-59
2023/06/12 12:00:11;;;;;;;9.10;5.35;;;32.00;65.50;;;;;;5041555;28;20033;-60
2023/06/12 12:02:40;;;;;;;6.38;4.75;;;31.00;72.50;;;;;;5048493;28;20542;-60
2023/06/12 12:05:09;;;;;;;6.45;5.35;;;31.20;69.20;;;;;;5041157;28;20033;-59
2023/06/12 12:07:45;;;;;;;13.57;5.32;;;31.20;70.60;;;;;;5046264;28;20024;-60
2023/06/12 12:10:12;;;;;;;7.57;6.00;;;30.50;65.70;;;;;;5038672;28;20033;-60
2023/06/12 12:12:46;;;;;;;9.77;5.70;;;30.20;68.20;;;;;;5041977;28;20079;-60
2023/06/12 12:15:16;;;;;;;6.18;5.57;;;29.60;74.80;;;;;;5044177;28;20448;-58
2023/06/12 12:17:43;;;;;;;10.38;6.50;;;29.30;71.30;;;;;;5047809;28;20033;-60
2023/06/12 12:20:21;;;;;;;6.55;5.13;;;29.50;75.50;;;;;;5039634;28;20505;-58
2023/06/12 12:22:51;;;;;;;8.82;6.30;;;30.20;75.60;;;;;;5045017;28;20061;-60
2023/06/12 12:25:20;;;;;;;6.68;5.35;;;30.80;69.50;;;;;;5043699;28;20025;-59
2023/06/12 12:27:46;;;;;;;7.20;5.78;;;31.30;69.10;;;;;;5042746;28;20017;-59
2023/06/12 12:30:15;;;;;;;6.97;5.55;;;31.50;68.70;;;;;;5038568;28;20029;-60
2023/06/12 12:32:45;;;;;;;8.27;5.43;;;32.00;65.10;;;;;;5041178;28;20501;-60
2023/06/12 12:35:11;;;;;;;8.65;5.40;;;31.70;65.70;;;;;;5041954;28;20067;-61
2023/06/12 12:37:37;;;;;;;9.73;5.65;;;31.50;64.00;;;;;;5038656;28;20233;-59
2023/06/12 12:40:10;;;;;;;5.97;5.10;;;31.00;68.30;;;;;;5046196;28;20052;-60
2023/06/12 12:42:38;;;;;;;6.32;5.63;;;31.00;72.00;;;;;;5042364;28;20021;-60
2023/06/12 12:45:04;;;;;;;6.82;5.43;;;31.20;72.60;;;;;;5045743;28;20083;-60